Time;durP1;ratioP1;P1;durP2;ratioP2;P2;SDS_P1;SDS_P2;PMS_P1;PMS_P2;Temp;Humidity;BMP_temperature;BMP_pressure;BME280_temperature;BME280_humidity;BME280_pressure;Samples;Min_cycle;Max_cycle;Signal;HPM_P1;HPM_P2
2022/04/24 00:00:43;;;;;;;52.17;24.83;;;;;;;-145.69;100.00;70339.94;5058292;28;20218;-76
2022/04/24 00:03:09;;;;;;;47.00;23.43;;;;;;;-145.69;100.00;70328.00;5052536;28;20274;-76
2022/04/24 00:05:36;;;;;;;46.07;24.07;;;;;;;-145.69;100.00;70326.03;5052112;28;20286;-76
2022/04/24 00:08:02;;;;;;;47.73;24.30;;;;;;;-145.69;100.00;70328.00;5052358;28;20757;-76
2022/04/24 00:10:30;;;;;;;43.87;21.80;;;;;;;-145.69;100.00;70332.00;5052327;28;20204;-76
2022/04/24 00:12:56;;;;;;;47.20;23.33;;;;;;;-145.69;100.00;70335.97;5055646;28;20199;-77
2022/04/24 00:15:23;;;;;;;46.97;23.17;;;;;;;-145.69;100.00;70335.97;5055943;28;20227;-77
2022/04/24 00:17:49;;;;;;;45.33;22.47;;;;;;;-145.69;100.00;70335.97;5056139;28;20231;-76
2022/04/24 00:20:15;;;;;;;47.80;24.00;;;;;;;-145.69;100.00;70333.97;5056075;28;20204;-76
2022/04/24 00:22:42;;;;;;;48.00;23.13;;;;;;;-145.69;100.00;70326.03;5073092;28;20203;-76
2022/04/24 00:25:09;;;;;;;46.50;23.63;;;;;;;-145.69;100.00;70324.03;5075813;28;20207;-76
2022/04/24 00:27:37;;;;;;;46.27;23.83;;;;;;;-145.69;100.00;70328.00;5075971;28;20202;-77
2022/04/24 00:30:04;;;;;;;48.67;23.53;;;;;;;-145.69;100.00;70335.97;5076032;28;20658;-76
2022/04/24 00:32:31;;;;;;;42.07;20.93;;;;;;;-145.69;100.00;70335.97;5076152;28;20202;-76
2022/04/24 00:34:57;;;;;;;45.50;23.27;;;;;;;-145.69;100.00;70335.97;5075795;28;20328;-76
2022/04/24 00:37:24;;;;;;;51.50;23.77;;;;;;;-145.69;100.00;70332.00;5076201;28;20202;-76
2022/04/24 00:39:51;;;;;;;43.97;23.03;;;;;;;-145.69;100.00;70339.94;5074753;28;20199;-77
2022/04/24 00:42:18;;;;;;;45.70;23.43;;;;;;;-145.69;100.00;70341.94;5075618;28;20634;-77
2022/04/24 00:44:46;;;;;;;44.50;22.30;;;;;;;-145.69;100.00;70339.94;5075742;28;20214;-77
2022/04/24 00:47:17;;;;;;;45.90;21.90;;;;;;;-145.69;100.00;70343.94;5075489;28;20677;-76
2022/04/24 00:49:44;;;;;;;38.37;20.27;;;;;;;-145.69;100.00;70339.94;5075105;28;20719;-77
2022/04/24 00:52:12;;;;;;;42.20;22.53;;;;;;;-145.69;100.00;70347.91;5075458;28;20194;-77
2022/04/24 00:54:39;;;;;;;41.20;21.30;;;;;;;-145.69;100.00;70345.91;5075238;28;20222;-77
2022/04/24 00:57:07;;;;;;;41.10;20.73;;;;;;;-145.69;100.00;70343.94;5075744;28;20199;-76
2022/04/24 00:59:33;;;;;;;39.40;21.50;;;;;;;-145.69;100.00;70339.94;5075777;28;20199;-77
2022/04/24 01:02:03;;;;;;;39.07;20.53;;;;;;;-145.69;100.00;70347.91;5075679;28;20198;-76
2022/04/24 01:04:29;;;;;;;46.83;23.03;;;;;;;-145.69;100.00;70353.88;5075420;28;20198;-77
2022/04/24 01:06:56;;;;;;;43.88;25.98;;;;;;;-145.69;100.00;70351.88;5074106;28;20913;-76
2022/04/24 01:09:24;;;;;;;42.93;22.67;;;;;;;-145.69;100.00;70351.88;5075285;28;20198;-77
2022/04/24 01:11:53;;;;;;;50.70;24.90;;;;;;;-145.69;100.00;70363.81;5075545;28;20206;-76
2022/04/24 01:14:20;;;;;;;42.80;21.50;;;;;;;-145.69;100.00;70363.81;5075410;28;20202;-76
2022/04/24 01:16:48;;;;;;;44.87;22.80;;;;;;;-145.69;100.00;70369.78;5075265;28;20256;-76
2022/04/24 01:19:16;;;;;;;43.50;21.93;;;;;;;-145.69;100.00;70375.75;5075407;28;20206;-76
2022/04/24 01:21:46;;;;;;;47.67;22.93;;;;;;;-145.69;100.00;70393.66;5074607;28;20203;-76
2022/04/24 01:24:14;;;;;;;45.23;22.33;;;;;;;-145.69;100.00;70411.56;5075219;28;20206;-76
2022/04/24 01:26:40;;;;;;;50.00;24.30;;;;;;;-145.69;100.00;70417.53;5075341;28;20207;-76
2022/04/24 01:29:06;;;;;;;56.50;26.23;;;;;;;-145.69;100.00;70427.47;5075101;28;20202;-76
2022/04/24 01:31:33;;;;;;;57.33;26.67;;;;;;;-145.69;100.00;70447.38;5075045;28;20206;-77
2022/04/24 01:34:00;;;;;;;56.50;26.43;;;;;;;-145.69;100.00;70451.34;5074977;28;20199;-76
2022/04/24 01:36:26;;;;;;;56.00;27.07;;;;;;;-145.69;100.00;70463.28;5074792;28;20227;-77
2022/04/24 01:38:54;;;;;;;52.60;25.77;;;;;;;-145.69;100.00;70463.28;5075071;28;20248;-76
2022/04/24 01:41:21;;;;;;;62.63;26.73;;;;;;;-145.69;100.00;70471.25;5074550;28;20199;-76
2022/04/24 01:43:48;;;;;;;59.63;27.70;;;;;;;-145.69;100.00;70487.16;5074738;28;20232;-76
2022/04/24 01:46:15;;;;;;;71.13;35.67;;;;;;;-145.69;100.00;70491.13;5072107;28;20473;-76
2022/04/24 01:48:41;;;;;;;70.20;31.53;;;;;;;-145.69;100.00;70495.13;5074754;28;20260;-76
2022/04/24 01:51:10;;;;;;;70.10;30.43;;;;;;;-145.69;100.00;70487.16;5074243;28;20272;-75
2022/04/24 01:53:37;;;;;;;65.27;28.57;;;;;;;-145.69;100.00;70483.19;5074347;28;20658;-75
2022/04/24 01:56:06;;;;;;;63.50;29.73;;;;;;;-145.69;100.00;70487.16;5074330;28;20269;-75
2022/04/24 01:58:33;;;;;;;64.33;29.03;;;;;;;-145.69;100.00;70489.16;5074314;28;20198;-75
2022/04/24 02:01:00;;;;;;;65.03;29.27;;;;;;;-145.69;100.00;70487.16;5074117;28;20252;-75
2022/04/24 02:03:28;;;;;;;63.33;28.97;;;;;;;-145.69;100.00;70475.22;5074269;28;20546;-75
2022/04/24 02:05:54;;;;;;;69.77;30.50;;;;;;;-145.69;100.00;70471.25;5060440;28;20211;-75
2022/04/24 02:08:21;;;;;;;75.60;31.40;;;;;;;-145.69;100.00;70479.19;5054198;28;20208;-75
2022/04/24 02:10:47;;;;;;;77.87;32.70;;;;;;;-145.69;100.00;70467.28;5054081;28;20235;-76
2022/04/24 02:13:15;;;;;;;81.20;32.73;;;;;;;-145.69;100.00;70471.25;5053948;28;20207;-75
2022/04/24 02:15:42;;;;;;;80.93;33.03;;;;;;;-145.69;100.00;70475.22;5053734;28;20222;-75
2022/04/24 02:18:08;;;;;;;82.30;31.97;;;;;;;-145.69;100.00;70479.19;5069069;28;20719;-75
2022/04/24 02:20:35;;;;;;;78.60;32.73;;;;;;;-145.69;100.00;70487.16;5073901;28;20199;-75
2022/04/24 02:23:02;;;;;;;79.23;33.07;;;;;;;-145.69;100.00;70489.16;5073838;28;20605;-75
2022/04/24 02:25:30;;;;;;;80.60;32.13;;;;;;;-145.69;100.00;70489.16;5073536;28;20261;-75
2022/04/24 02:27:57;;;;;;;85.33;33.90;;;;;;;-145.69;100.00;70495.13;5073703;28;20203;-75
2022/04/24 02:30:27;;;;;;;83.97;33.77;;;;;;;-145.69;100.00;70505.06;5073415;28;20209;-75
2022/04/24 02:32:55;;;;;;;84.17;35.30;;;;;;;-145.69;100.00;70505.06;5073550;28;20202;-75
2022/04/24 02:35:22;;;;;;;86.17;32.77;;;;;;;-145.69;100.00;70511.03;5072828;28;20222;-75
2022/04/24 02:37:48;;;;;;;80.17;32.87;;;;;;;-145.69;100.00;70501.09;5073532;28;20207;-75
2022/04/24 02:40:19;;;;;;;85.50;32.63;;;;;;;-145.69;100.00;70503.06;5073588;28;20202;-75
2022/04/24 02:42:46;;;;;;;78.27;31.40;;;;;;;-145.69;100.00;70505.06;5073635;28;20209;-75
2022/04/24 02:45:12;;;;;;;86.23;34.03;;;;;;;-145.69;100.00;70507.06;5073181;28;20207;-76
2022/04/24 02:47:40;;;;;;;82.90;33.20;;;;;;;-145.69;100.00;70503.06;5072122;28;20202;-75
2022/04/24 02:50:08;;;;;;;85.07;31.63;;;;;;;-145.69;100.00;70505.06;5073288;28;20245;-75
2022/04/24 02:52:45;;;;;;;90.43;35.20;;;;;;;-145.69;100.00;70503.06;5073105;28;20248;-75
2022/04/24 02:55:12;;;;;;;79.70;32.27;;;;;;;-145.69;100.00;70505.06;5073299;28;20211;-75
2022/04/24 02:57:38;;;;;;;81.17;33.33;;;;;;;-145.69;100.00;70499.09;5072925;28;20275;-75
2022/04/24 03:00:07;;;;;;;86.87;33.83;;;;;;;-145.69;100.00;70499.09;5073151;28;20199;-75
2022/04/24 03:02:42;;;;;;;86.93;32.67;;;;;;;-145.69;100.00;70505.06;5072959;28;20672;-75
2022/04/24 03:05:09;;;;;;;81.67;32.17;;;;;;;-145.69;100.00;70505.06;5073093;28;20687;-75
2022/04/24 03:07:35;;;;;;;94.87;34.50;;;;;;;-145.69;100.00;70509.03;5073148;28;20302;-75
2022/04/24 03:10:01;;;;;;;90.73;34.13;;;;;;;-145.69;100.00;70503.06;5072363;28;20210;-75
2022/04/24 03:12:29;;;;;;;91.23;34.00;;;;;;;-145.69;100.00;70511.03;5068002;28;20199;-75
2022/04/24 03:14:56;;;;;;;93.17;33.37;;;;;;;-145.69;100.00;70522.97;5072579;28;20199;-75
2022/04/24 03:17:22;;;;;;;97.80;35.40;;;;;;;-145.69;100.00;70522.97;5072467;28;20234;-75
2022/04/24 03:19:50;;;;;;;99.43;37.13;;;;;;;-145.69;100.00;70526.94;5072702;28;20248;-74
2022/04/24 03:22:17;;;;;;;113.93;36.93;;;;;;;-145.69;100.00;70532.91;5072883;28;20277;-74
2022/04/24 03:24:43;;;;;;;108.47;37.10;;;;;;;-145.69;100.00;70540.88;5072747;28;20202;-74
2022/04/24 03:27:09;;;;;;;107.77;38.70;;;;;;;-145.69;100.00;70544.84;5072941;28;20256;-74
2022/04/24 03:29:36;;;;;;;116.93;40.17;;;;;;;-145.69;100.00;70562.75;5072866;28;20199;-74
2022/04/24 03:32:02;;;;;;;112.80;38.77;;;;;;;-145.69;100.00;70574.69;5072875;28;20524;-74
2022/04/24 03:34:29;;;;;;;50.47;21.17;;;;;;;-145.69;100.00;70614.47;5072749;28;20198;-74
2022/04/24 03:36:57;;;;;;;13.67;6.20;;;;;;;-145.69;100.00;70664.22;5072637;28;20226;-73
2022/04/24 03:39:23;;;;;;;4.93;2.90;;;;;;;-145.69;100.00;70706.00;5072696;28;20597;-73
2022/04/24 03:41:49;;;;;;;4.90;2.20;;;;;;;-145.69;100.00;70765.69;5072861;28;20260;-74
2022/04/24 03:44:16;;;;;;;4.27;1.80;;;;;;;-145.69;100.00;70803.50;5072845;28;20198;-74
2022/04/24 03:46:42;;;;;;;1.80;1.13;;;;;;;-145.69;100.00;70825.38;5075826;28;20199;-75
2022/04/24 03:49:09;;;;;;;1.83;1.30;;;;;;;-145.69;100.00;70861.19;5076641;28;20194;-75
2022/04/24 03:51:35;;;;;;;1.23;0.80;;;;;;;-145.69;100.00;70875.13;5076588;28;20250;-76
2022/04/24 03:54:03;;;;;;;0.90;0.90;;;;;;;-145.69;100.00;70885.06;5076469;28;20202;-76
2022/04/24 03:56:31;;;;;;;1.83;1.00;;;;;;;-145.69;100.00;70891.03;5076556;28;20222;-76
2022/04/24 03:58:58;;;;;;;1.40;0.50;;;;;;;-145.69;100.00;70904.97;5076439;28;20199;-75
2022/04/24 04:01:25;;;;;;;0.50;0.50;;;;;;;-145.69;100.00;70908.94;5076403;28;20781;-75
2022/04/24 04:03:51;;;;;;;0.40;0.40;;;;;;;-145.69;100.00;70916.91;5076359;28;20213;-75
2022/04/24 04:06:18;;;;;;;0.50;0.50;;;;;;;-145.69;100.00;70920.88;5076050;28;20317;-75
2022/04/24 04:08:45;;;;;;;1.80;0.50;;;;;;;-145.69;100.00;70924.84;5075526;28;20222;-76
2022/04/24 04:11:13;;;;;;;1.43;0.80;;;;;;;-145.69;100.00;70926.84;5065587;28;20196;-75
2022/04/24 04:13:40;;;;;;;0.50;0.47;;;;;;;-145.69;100.00;70928.84;5055690;28;20211;-75
2022/04/24 04:16:06;;;;;;;0.80;0.53;;;;;;;-145.69;100.00;70922.88;5060965;28;20222;-75
2022/04/24 04:18:33;;;;;;;0.50;0.50;;;;;;;-145.69;100.00;70920.88;5076060;28;20252;-75
2022/04/24 04:20:59;;;;;;;0.70;0.60;;;;;;;-145.69;100.00;70916.91;5075624;28;20213;-75
2022/04/24 04:23:26;;;;;;;0.50;0.50;;;;;;;-145.69;100.00;70912.91;5075929;28;20249;-75
2022/04/24 04:25:52;;;;;;;1.37;0.67;;;;;;;-145.69;100.00;70914.91;5075291;28;20260;-75
2022/04/24 04:28:20;;;;;;;3.77;0.50;;;;;;;-145.69;100.00;70906.94;5074812;28;20211;-75
2022/04/24 04:30:46;;;;;;;0.60;0.57;;;;;;;-145.69;100.00;70904.97;5075579;28;20203;-75
2022/04/24 04:33:13;;;;;;;0.50;0.50;;;;;;;-145.69;100.00;70899.00;5075896;28;20201;-75
2022/04/24 04:35:39;;;;;;;0.50;0.47;;;;;;;-145.69;100.00;70893.03;5074967;28;20438;-75
2022/04/24 04:38:06;;;;;;;2.57;0.50;;;;;;;-145.69;100.00;70893.03;5075332;28;20834;-75
2022/04/24 04:40:32;;;;;;;2.27;0.73;;;;;;;-145.69;100.00;70912.91;5075600;28;20202;-75
2022/04/24 04:42:59;;;;;;;1.33;0.50;;;;;;;-145.69;100.00;70920.88;5075733;28;20206;-75
2022/04/24 04:45:27;;;;;;;2.27;0.60;;;;;;;-145.69;100.00;70906.94;5074817;28;20202;-75
2022/04/24 04:47:53;;;;;;;2.03;0.70;;;;;;;-145.69;100.00;70908.94;5075332;28;20199;-75
2022/04/24 04:50:19;;;;;;;1.27;0.50;;;;;;;-145.69;100.00;70908.94;5074736;28;20195;-75
2022/04/24 04:52:46;;;;;;;2.50;0.67;;;;;;;-145.69;100.00;70904.97;5075499;28;20210;-75
2022/04/24 04:55:12;;;;;;;2.20;0.70;;;;;;;-145.69;100.00;70904.97;5075291;28;20210;-75
2022/04/24 04:57:39;;;;;;;2.50;0.70;;;;;;;-145.69;100.00;70899.00;5074629;28;20304;-75
2022/04/24 05:00:07;;;;;;;0.80;0.60;;;;;;;-145.69;100.00;70900.97;5074997;28;20206;-75
2022/04/24 05:02:38;;;;;;;0.93;0.53;;;;;;;-145.69;100.00;70902.97;5075214;28;20202;-75
2022/04/24 05:05:05;;;;;;;0.87;0.43;;;;;;;-145.69;100.00;70887.06;5075314;28;20226;-75
2022/04/24 05:07:32;;;;;;;1.83;0.60;;;;;;;-145.69;100.00;70922.88;5075479;28;20202;-76
2022/04/24 05:09:58;;;;;;;1.20;0.60;;;;;;;-145.69;100.00;70922.88;5074666;28;20438;-76
2022/04/24 05:12:26;;;;;;;1.63;0.87;;;;;;;-145.69;100.00;70918.88;5075218;28;20198;-75
2022/04/24 05:14:53;;;;;;;2.00;0.60;;;;;;;-145.69;100.00;70926.84;5075080;28;20234;-76
2022/04/24 05:17:19;;;;;;;0.93;0.60;;;;;;;-145.69;100.00;70930.81;5074561;28;20239;-76
2022/04/24 05:19:47;;;;;;;0.50;0.50;;;;;;;-145.69;100.00;70940.78;5075191;28;20558;-76
2022/04/24 05:22:13;;;;;;;1.70;0.57;;;;;;;-145.69;100.00;70944.75;5075075;28;20198;-76
2022/04/24 05:24:40;;;;;;;1.70;0.80;;;;;;;-145.69;100.00;70952.72;5074548;28;20719;-75
2022/04/24 05:27:07;;;;;;;0.90;0.80;;;;;;;-145.69;100.00;70944.75;5073940;28;20202;-76
2022/04/24 05:29:33;;;;;;;2.80;1.00;;;;;;;-145.69;100.00;70964.66;5074878;28;20205;-76
2022/04/24 05:31:59;;;;;;;3.37;1.40;;;;;;;-145.69;100.00;70968.63;5074776;28;20570;-76
2022/04/24 05:34:26;;;;;;;3.40;1.50;;;;;;;-145.69;100.00;70984.53;5075046;28;20203;-75
2022/04/24 05:36:54;;;;;;;3.30;1.03;;;;;;;-145.69;100.00;70980.56;5074773;28;20227;-76
2022/04/24 05:39:20;;;;;;;2.83;1.00;;;;;;;-145.69;100.00;70988.53;5074839;28;20203;-76
2022/04/24 05:41:47;;;;;;;3.67;1.00;;;;;;;-145.69;100.00;70984.53;5074728;28;20244;-76
2022/04/24 05:44:13;;;;;;;1.20;0.70;;;;;;;-145.69;100.00;70974.59;5074713;28;20598;-76
2022/04/24 05:46:40;;;;;;;0.70;0.70;;;;;;;-145.69;100.00;70984.53;5074095;28;20252;-76
2022/04/24 05:49:06;;;;;;;1.77;0.80;;;;;;;-145.69;100.00;70992.50;5074534;28;20199;-76
2022/04/24 05:51:34;;;;;;;0.82;0.80;;;;;;;-145.69;100.00;70984.53;5074172;28;20446;-77
2022/04/24 05:54:02;;;;;;;0.60;0.50;;;;;;;-145.69;100.00;70984.53;5074452;28;20206;-76
2022/04/24 05:56:29;;;;;;;0.60;0.60;;;;;;;-145.69;100.00;70984.53;5074303;28;20223;-75
2022/04/24 05:58:55;;;;;;;0.70;0.70;;;;;;;-145.69;100.00;70984.53;5074360;28;20210;-76
2022/04/24 06:01:22;;;;;;;1.40;1.10;;;;;;;-145.69;100.00;70984.53;5074235;28;20198;-75
2022/04/24 06:03:48;;;;;;;1.00;0.83;;;;;;;-145.69;100.00;70986.53;5072314;28;20724;-76
2022/04/24 06:06:16;;;;;;;1.47;0.97;;;;;;;-145.69;100.00;70994.50;5054490;28;20205;-76
2022/04/24 06:08:43;;;;;;;4.60;0.90;;;;;;;-145.69;100.00;70992.50;5053164;28;20203;-76
2022/04/24 06:11:11;;;;;;;1.03;0.73;;;;;;;-145.69;100.00;71000.47;5053932;28;20558;-76
2022/04/24 06:13:39;;;;;;;2.27;0.83;;;;;;;-145.69;100.00;70994.50;5053909;28;20204;-76
2022/04/24 06:16:05;;;;;;;0.93;0.60;;;;;;;-145.69;100.00;70980.56;5063253;28;20191;-76
2022/04/24 06:18:32;;;;;;;2.00;0.70;;;;;;;-145.69;100.00;70970.63;5074034;28;20202;-77
2022/04/24 06:20:58;;;;;;;1.13;0.77;;;;;;;-145.69;100.00;70962.66;5073732;28;20203;-75
2022/04/24 06:23:27;;;;;;;1.90;1.07;;;;;;;-145.69;100.00;70968.63;5073744;28;20203;-76
2022/04/24 06:25:54;;;;;;;0.67;0.50;;;;;;;-145.69;100.00;70984.53;5073633;28;20222;-76
2022/04/24 06:28:21;;;;;;;0.80;0.80;;;;;;;-145.69;100.00;70994.50;5073529;28;20257;-76
2022/04/24 06:30:48;;;;;;;3.53;0.67;;;;;;;-145.69;100.00;70994.50;5073393;28;20206;-76
2022/04/24 06:33:15;;;;;;;1.23;0.70;;;;;;;-145.69;100.00;70984.53;5073132;28;20438;-75
2022/04/24 06:35:44;;;;;;;0.60;0.60;;;;;;;-145.69;100.00;70984.53;5073565;28;20612;-76
2022/04/24 06:38:10;;;;;;;4.10;1.10;;;;;;;-145.69;100.00;70984.53;5072473;28;20237;-75
2022/04/24 06:40:37;;;;;;;3.93;1.00;;;;;;;-145.69;100.00;70992.50;5072868;28;20209;-76
2022/04/24 06:43:06;;;;;;;2.20;1.03;;;;;;;-145.69;100.00;70992.50;5073529;28;20198;-76
2022/04/24 06:45:35;;;;;;;2.27;1.60;;;;;;;-145.69;100.00;70988.53;5073168;28;20195;-75
2022/04/24 06:48:04;;;;;;;2.53;1.50;;;;;;;-145.69;100.00;70980.56;5073530;28;20203;-76
2022/04/24 06:50:31;;;;;;;1.87;1.07;;;;;;;-145.69;100.00;70966.63;5073105;28;20195;-76
2022/04/24 06:52:58;;;;;;;3.07;1.40;;;;;;;-145.69;100.00;70964.66;5073340;28;20205;-76
2022/04/24 06:55:25;;;;;;;3.27;1.30;;;;;;;-145.69;100.00;70968.63;5073456;28;20202;-76
2022/04/24 06:57:52;;;;;;;2.27;1.00;;;;;;;-145.69;100.00;70968.63;5073265;28;20261;-75
2022/04/24 07:00:19;;;;;;;4.30;1.10;;;;;;;-145.69;100.00;70972.59;5073037;28;20666;-76
2022/04/24 07:02:47;;;;;;;2.00;0.90;;;;;;;-145.69;100.00;70976.59;5072983;28;20715;-76
2022/04/24 07:05:17;;;;;;;1.47;1.00;;;;;;;-145.69;100.00;70962.66;5072849;28;20534;-76
2022/04/24 07:07:43;;;;;;;2.63;1.20;;;;;;;-145.69;100.00;70946.75;5072818;28;20264;-76
2022/04/24 07:10:11;;;;;;;1.77;1.07;;;;;;;-145.69;100.00;70948.72;5073039;28;20195;-76
2022/04/24 07:12:48;;;;;;;1.67;0.90;;;;;;;-145.69;100.00;70934.81;5072878;28;20438;-76
2022/04/24 07:15:15;;;;;;;1.03;0.90;;;;;;;-145.69;100.00;70914.91;5072632;28;20444;-76
2022/04/24 07:17:42;;;;;;;1.30;0.80;;;;;;;-145.69;100.00;70916.91;5072739;28;20234;-76
2022/04/24 07:20:12;;;;;;;1.60;0.97;;;;;;;-145.69;100.00;70900.97;5072311;28;20293;-76
2022/04/24 07:22:44;;;;;;;2.03;0.80;;;;;;;-145.69;100.00;70895.00;5073032;28;20198;-76
2022/04/24 07:25:11;;;;;;;2.20;0.87;;;;;;;-145.69;100.00;70902.97;5072712;28;20685;-75
2022/04/24 07:27:37;;;;;;;1.13;0.83;;;;;;;-145.69;100.00;70904.97;5072754;28;20845;-76
2022/04/24 07:30:05;;;;;;;1.73;1.03;;;;;;;-145.69;100.00;70889.03;5072730;28;20198;-77
2022/04/24 07:32:38;;;;;;;1.17;0.90;;;;;;;-145.69;100.00;70861.19;5072641;28;20198;-76
2022/04/24 07:35:06;;;;;;;2.40;0.87;;;;;;;-145.69;100.00;70855.22;5072703;28;20642;-75
2022/04/24 07:37:34;;;;;;;1.53;0.70;;;;;;;-145.69;100.00;70829.34;5072402;28;20226;-76
2022/04/24 07:40:00;;;;;;;1.20;0.53;;;;;;;-145.69;100.00;70837.31;5072542;28;20249;-76
2022/04/24 07:42:27;;;;;;;3.23;0.70;;;;;;;-145.69;100.00;70861.19;5072762;28;20202;-77
2022/04/24 07:44:53;;;;;;;1.43;1.00;;;;;;;-145.69;100.00;70871.13;5071336;28;20202;-76
2022/04/24 07:47:19;;;;;;;2.30;1.20;;;;;;;-145.69;100.00;70869.16;5071809;28;20267;-76
2022/04/24 07:49:46;;;;;;;2.77;1.00;;;;;;;-145.69;100.00;70833.34;5072769;28;20252;-76
2022/04/24 07:52:12;;;;;;;2.87;1.17;;;;;;;-145.69;100.00;70821.41;5072775;28;20597;-77
2022/04/24 07:54:40;;;;;;;3.13;1.40;;;;;;;-145.69;100.00;70817.41;5072920;28;20199;-77
2022/04/24 07:57:06;;;;;;;1.87;1.03;;;;;;;-145.69;100.00;70823.38;5072648;28;20237;-77
2022/04/24 07:59:33;;;;;;;1.17;0.80;;;;;;;-145.69;100.00;70829.34;5072616;28;20566;-77
2022/04/24 08:01:59;;;;;;;1.50;1.03;;;;;;;-145.69;100.00;70831.34;5072761;28;20199;-77
2022/04/24 08:04:26;;;;;;;2.13;1.30;;;;;;;-145.69;100.00;70825.38;5072598;28;20684;-77
2022/04/24 08:06:52;;;;;;;2.77;1.63;;;;;;;-145.69;100.00;70831.34;5072610;28;20260;-77
2022/04/24 08:09:18;;;;;;;1.90;0.93;;;;;;;-145.69;100.00;70815.44;5060939;28;20201;-76
2022/04/24 08:11:46;;;;;;;1.87;1.63;;;;;;;-145.69;100.00;70797.53;5052655;28;20199;-77
2022/04/24 08:14:13;;;;;;;1.40;1.10;;;;;;;-145.69;100.00;70835.31;5052323;28;20204;-77
2022/04/24 08:16:39;;;;;;;3.37;1.97;;;;;;;-145.69;100.00;70813.44;5066962;28;20226;-76
2022/04/24 08:19:05;;;;;;;5.30;1.80;;;;;;;-145.69;100.00;70819.41;5072421;28;20249;-77
2022/04/24 08:21:32;;;;;;;2.03;1.43;;;;;;;-145.69;100.00;70809.47;5072182;28;20253;-76
2022/04/24 08:23:58;;;;;;;1.40;1.10;;;;;;;-145.69;100.00;70751.75;5072637;28;20202;-76
2022/04/24 08:26:26;;;;;;;4.53;1.00;;;;;;;-145.69;100.00;70775.63;5072437;28;20210;-76
2022/04/24 08:28:53;;;;;;;2.23;1.60;;;;;;;-145.69;100.00;70771.66;5072220;28;20203;-77
2022/04/24 08:31:20;;;;;;;1.40;1.27;;;;;;;-145.69;100.00;70761.72;5072410;28;20635;-77
2022/04/24 08:33:46;;;;;;;2.70;1.10;;;;;;;-145.69;100.00;70771.66;5075914;28;20199;-77
2022/04/24 08:36:13;;;;;;;0.77;0.67;;;;;;;-145.69;100.00;70779.63;5075991;28;20257;-76
2022/04/24 08:38:39;;;;;;;0.80;0.80;;;;;;;-145.69;100.00;70785.59;5075497;28;20550;-76
2022/04/24 08:41:06;;;;;;;1.27;0.90;;;;;;;-145.69;100.00;70763.69;5075452;28;20198;-76
2022/04/24 08:43:33;;;;;;;0.80;0.70;;;;;;;-145.69;100.00;70749.78;5075430;28;20199;-77
2022/04/24 08:46:03;;;;;;;1.07;0.90;;;;;;;-145.69;100.00;70761.72;5074805;28;20218;-76
2022/04/24 08:48:30;;;;;;;1.10;1.00;;;;;;;-145.69;100.00;70737.84;5074190;28;20195;-76
2022/04/24 08:50:59;;;;;;;0.90;0.90;;;;;;;-145.69;100.00;70745.78;5075332;28;20272;-76
2022/04/24 08:53:29;;;;;;;7.40;0.90;;;;;;;-145.69;100.00;70769.66;5075169;28;20221;-76
2022/04/24 08:55:56;;;;;;;1.53;0.90;;;;;;;-145.69;100.00;70777.63;5075774;28;20596;-76
2022/04/24 08:58:22;;;;;;;1.87;1.30;;;;;;;-145.69;100.00;70775.63;5075386;28;20226;-76
2022/04/24 09:00:48;;;;;;;2.13;1.80;;;;;;;-145.69;100.00;70785.59;5075124;28;20200;-76
2022/04/24 09:03:16;;;;;;;2.30;1.00;;;;;;;-145.69;100.00;70785.59;5075258;28;20199;-77
2022/04/24 09:05:43;;;;;;;1.00;0.80;;;;;;;-145.69;100.00;70785.59;5074946;28;20585;-76
2022/04/24 09:08:11;;;;;;;1.10;0.60;;;;;;;-145.69;100.00;70785.59;5075146;28;20199;-76
2022/04/24 09:10:49;;;;;;;0.60;0.60;;;;;;;-145.69;100.00;70785.59;5070208;28;20710;-76
2022/04/24 09:13:26;;;;;;;0.80;0.70;;;;;;;-145.69;100.00;70761.72;5074999;28;20210;-76
2022/04/24 09:15:54;;;;;;;0.90;0.60;;;;;;;-145.69;100.00;70757.72;5074639;28;20214;-76
2022/04/24 09:18:22;;;;;;;0.60;0.60;;;;;;;-145.69;100.00;70755.75;5074707;28;20242;-76
2022/04/24 09:20:55;;;;;;;0.77;0.60;;;;;;;-145.69;100.00;70749.78;5074727;28;20217;-76
2022/04/24 09:23:21;;;;;;;3.03;0.60;;;;;;;-145.69;100.00;70749.78;5075011;28;20281;-76
2022/04/24 09:25:47;;;;;;;46.37;18.57;;;;;;;-145.69;100.00;70741.81;5074876;28;20202;-75
2022/04/24 09:28:14;;;;;;;2.65;0.73;;;;;;;-145.69;100.00;70743.81;5074136;28;20492;-76
2022/04/24 09:30:49;;;;;;;0.93;0.80;;;;;;;-145.69;100.00;70769.66;5074643;28;20264;-75
2022/04/24 09:33:15;;;;;;;3.97;1.10;;;;;;;-145.69;100.00;70771.66;5074684;28;20211;-74
2022/04/24 09:35:43;;;;;;;1.43;0.80;;;;;;;-145.69;100.00;70767.69;5074440;28;20195;-75
2022/04/24 09:38:13;;;;;;;0.67;0.67;;;;;;;-145.69;100.00;70765.69;5074383;28;20697;-75
2022/04/24 09:40:41;;;;;;;0.80;0.67;;;;;;;-145.69;100.00;70777.63;5074746;28;20218;-75
2022/04/24 09:43:11;;;;;;;0.67;0.63;;;;;;;-145.69;100.00;70755.75;5074101;28;20653;-75
2022/04/24 09:45:40;;;;;;;0.87;0.60;;;;;;;-145.69;100.00;70769.66;5073793;28;20727;-74
2022/04/24 09:48:14;;;;;;;1.53;0.90;;;;;;;-145.69;100.00;70755.75;5074040;28;20224;-75
2022/04/24 09:50:41;;;;;;;2.20;0.90;;;;;;;-145.69;100.00;70767.69;5074083;28;20203;-75
2022/04/24 09:53:11;;;;;;;1.10;0.97;;;;;;;-145.69;100.00;70753.75;5073981;28;20217;-76
2022/04/24 09:55:40;;;;;;;1.47;1.00;;;;;;;-145.69;100.00;70737.84;5074385;28;20268;-75
2022/04/24 09:58:07;;;;;;;0.83;0.80;;;;;;;-145.69;100.00;70741.81;5074094;28;20313;-75
2022/04/24 10:00:34;;;;;;;1.23;0.90;;;;;;;-145.69;100.00;70727.88;5073770;28;20218;-75
2022/04/24 10:03:01;;;;;;;2.10;0.93;;;;;;;-145.69;100.00;70719.94;5074214;28;20226;-75
2022/04/24 10:05:29;;;;;;;1.00;0.90;;;;;;;-145.69;100.00;70715.94;5072826;28;20202;-75
2022/04/24 10:07:56;;;;;;;0.87;0.70;;;;;;;-145.69;100.00;70729.88;5073943;28;20225;-75
2022/04/24 10:10:24;;;;;;;0.60;0.60;;;;;;;-145.69;100.00;70753.75;5073264;28;20233;-74
2022/04/24 10:12:53;;;;;;;2.13;0.90;;;;;;;-145.69;100.00;70761.72;5073732;28;20256;-74
2022/04/24 10:15:22;;;;;;;1.70;0.93;;;;;;;-145.69;100.00;70741.81;5071286;28;20600;-74
2022/04/24 10:18:06;;;;;;;3.07;0.90;;;;;;;-145.69;100.00;70753.75;5073678;28;20241;-74
2022/04/24 10:21:10;;;;;;;1.53;0.80;;;;;;;-145.69;100.00;70771.66;5073644;28;20206;-75
2022/04/24 10:23:38;;;;;;;1.30;0.90;;;;;;;-145.69;100.00;70775.63;5073542;28;20206;-74
2022/04/24 10:26:17;;;;;;;1.17;0.70;;;;;;;-145.69;100.00;70791.56;5073797;28;20286;-74
2022/04/24 10:28:45;;;;;;;1.40;0.70;;;;;;;-145.69;100.00;70783.59;5073656;28;20771;-74
2022/04/24 10:31:11;;;;;;;1.53;0.93;;;;;;;-145.69;100.00;70769.66;5071819;28;20206;-74
2022/04/24 10:33:38;;;;;;;0.93;0.90;;;;;;;-145.69;100.00;70785.59;5073499;28;20199;-74
2022/04/24 10:36:13;;;;;;;1.57;0.97;;;;;;;-145.69;100.00;70769.66;5073169;28;20677;-75
2022/04/24 10:38:48;;;;;;;1.37;0.80;;;;;;;-145.69;100.00;70757.72;5073271;28;20229;-75
2022/04/24 10:41:17;;;;;;;1.40;1.10;;;;;;;-145.69;100.00;70749.78;5073460;28;20210;-75
2022/04/24 10:43:46;;;;;;;1.80;1.30;;;;;;;-145.69;100.00;70745.78;5073385;28;20588;-75
2022/04/24 10:46:17;;;;;;;1.13;0.90;;;;;;;-145.69;100.00;70739.81;5073212;28;20319;-75
2022/04/24 10:48:46;;;;;;;2.53;1.70;;;;;;;-145.69;100.00;70713.97;5073130;28;20203;-75
2022/04/24 10:51:12;;;;;;;2.50;1.10;;;;;;;-145.69;100.00;70747.78;5073138;28;20203;-74
2022/04/24 10:53:50;;;;;;;1.57;1.00;;;;;;;-145.69;100.00;70741.81;5073267;28;20202;-75
2022/04/24 10:56:18;;;;;;;4.67;1.70;;;;;;;-145.69;100.00;70702.03;5072420;28;20264;-74
2022/04/24 10:58:44;;;;;;;3.50;2.37;;;;;;;-145.69;100.00;70696.06;5072946;28;20322;-74
2022/04/24 11:01:15;;;;;;;5.37;1.00;;;;;;;-145.69;100.00;70709.97;5072884;28;20198;-74
2022/04/24 11:03:42;;;;;;;1.00;0.90;;;;;;;-145.69;100.00;70706.00;5073218;28;20237;-73
2022/04/24 11:06:18;;;;;;;1.57;1.17;;;;;;;-145.69;100.00;70700.03;5073143;28;20194;-74